createdAt,value
2016-10-28T00:00:34.853Z,0
2016-10-28T00:01:34.860Z,0
2016-10-28T00:02:34.870Z,0
2016-10-28T00:03:34.910Z,0
2016-10-28T00:04:34.899Z,0
2016-10-28T00:05:34.941Z,0
2016-10-28T00:06:34.997Z,0
2016-10-28T00:07:35.004Z,0
2016-10-28T00:08:34.988Z,0
2016-10-28T00:09:35.009Z,0
2016-10-28T00:10:35.032Z,0
2016-10-28T00:11:35.039Z,0
2016-10-28T00:12:35.074Z,0
2016-10-28T00:13:35.091Z,0
2016-10-28T00:14:35.145Z,0
2016-10-28T00:15:35.142Z,0
2016-10-28T00:16:35.159Z,0
2016-10-28T00:17:35.185Z,0
2016-10-28T00:18:35.180Z,0
2016-10-28T00:19:35.163Z,0
2016-10-28T00:20:35.190Z,0
2016-10-28T00:21:35.206Z,0
2016-10-28T00:22:35.273Z,0
2016-10-28T00:23:35.283Z,0
2016-10-28T00:24:35.256Z,0
2016-10-28T00:25:35.265Z,0
2016-10-28T00:26:35.311Z,0
2016-10-28T00:27:35.326Z,0
2016-10-28T00:28:35.319Z,0
2016-10-28T00:29:35.337Z,0
2016-10-28T00:30:35.353Z,0
2016-10-28T00:31:35.371Z,0
2016-10-28T00:32:35.388Z,0
2016-10-28T00:33:35.408Z,0
2016-10-28T00:34:35.429Z,0
2016-10-28T00:35:35.426Z,0
2016-10-28T00:36:35.464Z,0
2016-10-28T00:37:35.478Z,0
2016-10-28T00:38:35.502Z,0
2016-10-28T00:39:35.507Z,0
2016-10-28T00:40:35.524Z,0
2016-10-28T00:41:35.552Z,0
2016-10-28T00:42:35.569Z,0
2016-10-28T00:43:35.583Z,0
2016-10-28T00:44:35.576Z,0
2016-10-28T00:45:35.666Z,0
2016-10-28T00:46:35.610Z,0
2016-10-28T00:47:35.633Z,0
2016-10-28T00:48:35.662Z,0
2016-10-28T00:49:35.684Z,0
2016-10-28T00:50:35.738Z,0
2016-10-28T00:51:35.758Z,0
2016-10-28T00:52:35.732Z,0
2016-10-28T00:53:35.743Z,0
2016-10-28T00:54:35.757Z,0
2016-10-28T00:55:35.781Z,0
2016-10-28T00:56:35.862Z,0
2016-10-28T00:57:35.841Z,0
2016-10-28T00:58:35.852Z,0
2016-10-28T00:59:35.853Z,0
2016-10-28T01:00:35.902Z,0
2016-10-28T01:01:35.881Z,0
2016-10-28T01:02:35.963Z,0
2016-10-28T01:03:35.933Z,0
2016-10-28T01:04:35.969Z,0
2016-10-28T01:05:35.963Z,0
2016-10-28T01:06:35.993Z,0
2016-10-28T01:07:35.995Z,0
2016-10-28T01:08:36.051Z,0
2016-10-28T01:09:36.020Z,0
2016-10-28T01:10:36.060Z,0
2016-10-28T01:11:36.066Z,0
2016-10-28T01:12:36.116Z,0
2016-10-28T01:13:36.104Z,0
2016-10-28T01:14:36.138Z,0
2016-10-28T01:15:36.137Z,0
2016-10-28T01:16:36.158Z,0
2016-10-28T01:17:36.174Z,0
2016-10-28T01:18:36.196Z,0
2016-10-28T01:19:36.198Z,0
2016-10-28T01:20:36.218Z,0
2016-10-28T01:21:36.252Z,0
2016-10-28T01:22:36.251Z,0
2016-10-28T01:23:36.597Z,0
2016-10-28T01:24:36.289Z,0
2016-10-28T01:25:36.309Z,0
2016-10-28T01:26:36.379Z,0
2016-10-28T01:27:36.395Z,0
2016-10-28T01:28:36.372Z,0
2016-10-28T01:29:36.378Z,0
2016-10-28T01:30:36.403Z,0
2016-10-28T01:31:36.407Z,0
2016-10-28T01:32:36.441Z,0
2016-10-28T01:33:36.439Z,0
2016-10-28T01:34:36.451Z,0
2016-10-28T01:35:36.485Z,0
2016-10-28T01:36:36.507Z,0
2016-10-28T01:37:36.548Z,0
2016-10-28T01:38:36.549Z,0
2016-10-28T01:39:36.559Z,0
2016-10-28T01:40:36.610Z,0
2016-10-28T01:41:36.588Z,0
2016-10-28T01:42:36.602Z,0
2016-10-28T01:43:36.630Z,0
2016-10-28T01:44:36.648Z,0
2016-10-28T01:45:36.662Z,0
2016-10-28T01:46:36.678Z,0
2016-10-28T01:47:36.701Z,0
2016-10-28T01:48:36.712Z,0
2016-10-28T01:49:36.731Z,0
2016-10-28T01:50:36.745Z,0
2016-10-28T01:51:36.763Z,0
2016-10-28T01:52:36.780Z,0
2016-10-28T01:53:36.783Z,0
2016-10-28T01:54:36.823Z,0
2016-10-28T01:55:36.825Z,0
2016-10-28T01:56:36.860Z,0
2016-10-28T01:57:36.871Z,0
2016-10-28T01:58:36.900Z,0
2016-10-28T01:59:36.900Z,0
2016-10-28T02:00:36.913Z,0
2016-10-28T02:01:36.949Z,0
2016-10-28T02:02:36.971Z,0
2016-10-28T02:03:36.969Z,0
2016-10-28T02:04:37.004Z,0
2016-10-28T02:05:37.002Z,0
2016-10-28T02:06:37.035Z,0
2016-10-28T02:07:37.043Z,0
2016-10-28T02:08:37.057Z,0
2016-10-28T02:09:37.090Z,0
2016-10-28T02:10:37.113Z,0
2016-10-28T02:11:37.099Z,0
2016-10-28T02:12:37.122Z,0
2016-10-28T02:13:37.142Z,0
2016-10-28T02:14:37.160Z,0
2016-10-28T02:15:37.160Z,0
2016-10-28T02:16:37.193Z,0
2016-10-28T02:17:37.217Z,0
2016-10-28T02:18:37.227Z,0
2016-10-28T02:19:37.241Z,0
2016-10-28T02:20:37.281Z,0
2016-10-28T02:21:37.313Z,0
2016-10-28T02:22:37.295Z,0
2016-10-28T02:23:37.316Z,0
2016-10-28T02:24:37.334Z,0
2016-10-28T02:25:37.358Z,0
2016-10-28T02:26:37.379Z,0
2016-10-28T02:27:37.405Z,0
2016-10-28T02:28:37.414Z,0
2016-10-28T02:29:37.430Z,0
2016-10-28T02:30:37.442Z,0
2016-10-28T02:31:37.452Z,0
2016-10-28T02:32:37.490Z,0
2016-10-28T02:33:37.486Z,0
2016-10-28T02:34:37.527Z,0
2016-10-28T02:35:37.528Z,0
2016-10-28T02:36:37.579Z,0
2016-10-28T02:37:37.551Z,0
2016-10-28T02:38:37.568Z,0
2016-10-28T02:39:37.646Z,0
2016-10-28T02:40:37.630Z,0
2016-10-28T02:41:37.627Z,0
2016-10-28T02:42:37.656Z,0
2016-10-28T02:43:37.677Z,0
2016-10-28T02:44:37.712Z,0
2016-10-28T02:45:37.702Z,0
2016-10-28T02:46:37.722Z,0
2016-10-28T02:47:37.739Z,0
2016-10-28T02:48:37.787Z,0
2016-10-28T02:49:37.771Z,0
2016-10-28T02:50:37.798Z,0
2016-10-28T02:51:37.812Z,0
2016-10-28T02:52:37.894Z,0
2016-10-28T02:53:37.839Z,0
2016-10-28T02:54:37.857Z,0
2016-10-28T02:55:37.874Z,0
2016-10-28T02:56:37.883Z,0
2016-10-28T02:57:37.903Z,0
2016-10-28T02:58:37.934Z,0
2016-10-28T02:59:37.981Z,0
2016-10-28T03:00:38.031Z,0
2016-10-28T03:01:37.965Z,0
2016-10-28T03:02:38.059Z,0
2016-10-28T03:03:38.013Z,0
2016-10-28T03:04:38.029Z,0
2016-10-28T03:05:38.049Z,0
2016-10-28T03:06:38.063Z,0
2016-10-28T03:07:38.096Z,0
2016-10-28T03:08:38.113Z,0
2016-10-28T03:09:38.130Z,0
2016-10-28T03:10:38.136Z,0
2016-10-28T03:11:38.159Z,0
2016-10-28T03:12:38.173Z,0
2016-10-28T03:13:38.193Z,0
2016-10-28T03:14:38.220Z,0
2016-10-28T03:15:38.240Z,0
2016-10-28T03:16:38.258Z,0
2016-10-28T03:17:38.273Z,0
2016-10-28T03:18:38.272Z,0
2016-10-28T03:19:38.301Z,0
2016-10-28T03:20:38.311Z,0
2016-10-28T03:21:38.316Z,0
2016-10-28T03:22:38.344Z,0
2016-10-28T03:23:38.377Z,0
2016-10-28T03:24:38.402Z,0
2016-10-28T03:25:38.416Z,0
2016-10-28T03:26:38.401Z,0
2016-10-28T03:27:38.452Z,0
2016-10-28T03:28:38.449Z,0
2016-10-28T03:29:38.474Z,0
2016-10-28T03:30:38.505Z,0
2016-10-28T03:31:38.520Z,0
2016-10-28T03:32:38.525Z,0
2016-10-28T03:33:38.535Z,0
2016-10-28T03:34:38.561Z,0
2016-10-28T03:35:38.585Z,0
2016-10-28T03:36:38.597Z,0
2016-10-28T03:37:38.636Z,0
2016-10-28T03:38:38.958Z,0
2016-10-28T03:39:38.654Z,0
2016-10-28T03:40:38.659Z,0
2016-10-28T03:41:38.664Z,0
2016-10-28T03:42:38.714Z,0
2016-10-28T03:43:38.717Z,0
2016-10-28T03:44:38.719Z,0
2016-10-28T03:45:38.757Z,0
2016-10-28T03:46:38.758Z,0
2016-10-28T03:47:38.791Z,0
2016-10-28T03:48:38.798Z,0
2016-10-28T03:49:38.860Z,0
2016-10-28T03:50:38.825Z,0
2016-10-28T03:51:38.875Z,0
2016-10-28T03:52:38.887Z,0
2016-10-28T03:53:38.879Z,0
2016-10-28T03:54:38.913Z,0
2016-10-28T03:55:38.921Z,0
2016-10-28T03:56:38.954Z,0
2016-10-28T03:57:38.958Z,0
2016-10-28T03:58:38.965Z,0
2016-10-28T03:59:38.990Z,0
2016-10-28T04:01:39.056Z,0
2016-10-28T04:02:39.092Z,0
2016-10-28T04:03:39.090Z,0
2016-10-28T04:04:39.107Z,0
2016-10-28T04:05:39.111Z,0
2016-10-28T04:06:39.149Z,0
2016-10-28T04:07:39.205Z,0
2016-10-28T04:08:39.179Z,0
2016-10-28T04:09:39.189Z,0
2016-10-28T04:10:39.220Z,0
2016-10-28T04:11:39.218Z,0
2016-10-28T04:12:39.260Z,0
2016-10-28T04:13:39.271Z,0
2016-10-28T04:14:39.262Z,0
2016-10-28T04:15:39.413Z,0
2016-10-28T04:16:39.319Z,0
2016-10-28T04:17:39.351Z,0
2016-10-28T04:18:39.369Z,0
2016-10-28T04:19:39.362Z,0
2016-10-28T04:20:39.401Z,0
2016-10-28T04:21:39.410Z,0
2016-10-28T04:22:39.428Z,0
2016-10-28T04:23:39.448Z,0
2016-10-28T04:24:39.457Z,0
2016-10-28T04:25:39.482Z,0
2016-10-28T04:26:39.535Z,0
2016-10-28T04:27:39.520Z,0
2016-10-28T04:28:39.572Z,0
2016-10-28T04:29:39.549Z,0
2016-10-28T04:30:39.619Z,0
2016-10-28T04:31:39.581Z,0
2016-10-28T04:32:39.581Z,0
2016-10-28T04:33:39.614Z,0
2016-10-28T04:34:39.636Z,0
2016-10-28T04:35:39.701Z,0
2016-10-28T04:36:39.679Z,0
2016-10-28T04:37:39.690Z,0
2016-10-28T04:38:39.701Z,0
2016-10-28T04:39:39.717Z,0
2016-10-28T04:40:39.733Z,0
2016-10-28T04:41:39.757Z,0
2016-10-28T04:42:40.114Z,0
2016-10-28T04:43:39.796Z,0
2016-10-28T04:44:39.818Z,0
2016-10-28T04:45:39.815Z,0
2016-10-28T04:46:39.856Z,0
2016-10-28T04:47:39.876Z,0
2016-10-28T04:48:39.887Z,0
2016-10-28T04:49:39.883Z,0
2016-10-28T04:50:39.917Z,0
2016-10-28T04:51:39.971Z,0
2016-10-28T04:52:39.932Z,0
2016-10-28T04:53:39.969Z,0
2016-10-28T04:54:39.999Z,0
2016-10-28T04:55:39.988Z,0
2016-10-28T04:56:40.028Z,0
2016-10-28T04:57:40.018Z,0
2016-10-28T04:58:40.053Z,0
2016-10-28T04:59:40.054Z,0
2016-10-28T05:00:40.105Z,0
2016-10-28T05:01:40.098Z,0
2016-10-28T05:02:40.177Z,0
2016-10-28T05:03:40.130Z,0
2016-10-28T05:04:40.151Z,0
2016-10-28T05:05:40.185Z,0
2016-10-28T05:06:40.180Z,0
2016-10-28T05:07:40.226Z,0
2016-10-28T05:08:40.275Z,0
2016-10-28T05:09:40.239Z,0
2016-10-28T05:10:40.266Z,0
2016-10-28T05:11:40.280Z,0
2016-10-28T05:12:40.296Z,0
2016-10-28T05:13:40.337Z,0
2016-10-28T05:14:40.330Z,0
2016-10-28T05:15:40.345Z,0
2016-10-28T05:16:40.380Z,0
2016-10-28T05:17:40.378Z,0
2016-10-28T05:18:40.394Z,0
2016-10-28T05:19:40.405Z,0
2016-10-28T05:20:40.444Z,0
2016-10-28T05:21:40.445Z,0
2016-10-28T05:22:40.473Z,0
2016-10-28T05:23:40.486Z,0
2016-10-28T05:24:40.481Z,0
2016-10-28T05:25:40.523Z,0
2016-10-28T05:26:40.556Z,0
2016-10-28T05:27:40.541Z,0
2016-10-28T05:28:40.569Z,0
2016-10-28T05:29:40.578Z,0
2016-10-28T05:30:40.631Z,0
2016-10-28T05:31:40.608Z,0
2016-10-28T05:32:40.639Z,0
2016-10-28T05:33:40.675Z,0
2016-10-28T05:34:40.665Z,0
2016-10-28T05:35:40.728Z,0
2016-10-28T05:36:40.716Z,0
2016-10-28T05:37:40.705Z,0
2016-10-28T05:38:40.800Z,0
2016-10-28T05:39:40.760Z,0
2016-10-28T05:40:40.787Z,0
2016-10-28T05:41:40.801Z,0
2016-10-28T05:42:40.851Z,0
2016-10-28T05:43:40.834Z,0
2016-10-28T05:44:40.850Z,0
2016-10-28T05:45:40.883Z,0
2016-10-28T05:46:40.879Z,0
2016-10-28T05:47:40.916Z,0
2016-10-28T05:48:40.931Z,0
2016-10-28T05:49:40.924Z,0
2016-10-28T05:50:40.950Z,0
2016-10-28T05:51:40.969Z,0
2016-10-28T05:52:40.955Z,0
2016-10-28T05:53:40.980Z,0
2016-10-28T05:54:41.355Z,0
2016-10-28T05:55:41.022Z,0
2016-10-28T05:56:41.070Z,0
2016-10-28T05:57:41.067Z,0
2016-10-28T05:58:41.380Z,0
2016-10-28T05:59:41.090Z,0
2016-10-28T06:00:41.131Z,0
2016-10-28T06:01:41.141Z,0
2016-10-28T06:02:41.167Z,0
2016-10-28T06:03:41.174Z,0
2016-10-28T06:04:41.209Z,0
2016-10-28T06:05:41.213Z,0
2016-10-28T06:06:41.219Z,0
2016-10-28T06:07:41.240Z,0
2016-10-28T06:08:41.255Z,0
2016-10-28T06:09:41.269Z,0
2016-10-28T06:10:41.308Z,0
2016-10-28T06:11:41.324Z,0
2016-10-28T06:12:41.331Z,0
2016-10-28T06:13:41.353Z,0
2016-10-28T06:14:41.387Z,0
2016-10-28T06:15:41.379Z,0
2016-10-28T06:16:41.392Z,0
2016-10-28T06:17:41.421Z,0
2016-10-28T06:18:41.437Z,0
2016-10-28T06:19:41.447Z,0
2016-10-28T06:20:41.471Z,0
2016-10-28T06:21:41.500Z,0
2016-10-28T06:22:41.493Z,0
2016-10-28T06:23:41.512Z,0
2016-10-28T06:24:41.587Z,0
2016-10-28T06:25:41.580Z,0
2016-10-28T06:26:41.571Z,0
2016-10-28T06:27:41.585Z,0
2016-10-28T06:28:41.653Z,0
2016-10-28T06:29:41.624Z,0
2016-10-28T06:30:41.633Z,0
2016-10-28T06:31:41.674Z,0
2016-10-28T06:32:41.709Z,0
2016-10-28T06:33:41.692Z,0
2016-10-28T06:34:41.712Z,0
2016-10-28T06:35:41.721Z,0
2016-10-28T06:36:41.746Z,0
2016-10-28T06:37:41.745Z,5
2016-10-28T06:38:41.776Z,5
2016-10-28T06:39:41.776Z,5
2016-10-28T06:40:41.872Z,5
2016-10-28T06:41:41.835Z,5
2016-10-28T06:42:41.867Z,5
2016-10-28T06:43:41.844Z,5
2016-10-28T06:44:41.885Z,5
2016-10-28T06:45:41.889Z,5
2016-10-28T06:46:41.978Z,5
2016-10-28T06:47:41.937Z,5
2016-10-28T06:48:41.957Z,5
2016-10-28T06:49:41.978Z,5
2016-10-28T06:50:42.006Z,5
2016-10-28T06:51:42.010Z,5
2016-10-28T06:52:42.067Z,5
2016-10-28T06:53:42.018Z,10
2016-10-28T06:54:42.059Z,10
2016-10-28T06:55:42.067Z,10
2016-10-28T06:56:42.110Z,10
2016-10-28T06:57:42.113Z,10
2016-10-28T06:58:42.136Z,10
2016-10-28T06:59:42.127Z,10
2016-10-28T07:00:42.170Z,10
2016-10-28T07:01:42.188Z,15
2016-10-28T07:02:42.193Z,15
2016-10-28T07:03:42.205Z,15
2016-10-28T07:04:42.235Z,10
2016-10-28T07:05:42.243Z,10
2016-10-28T07:06:42.279Z,10
2016-10-28T07:07:42.276Z,10
2016-10-28T07:08:42.282Z,5
2016-10-28T07:09:42.309Z,5
2016-10-28T07:10:42.348Z,5
2016-10-28T07:11:42.408Z,5
2016-10-28T07:12:42.385Z,5
2016-10-28T07:13:42.401Z,5
2016-10-28T07:14:42.397Z,5
2016-10-28T07:15:42.428Z,5
2016-10-28T07:16:42.450Z,5
2016-10-28T07:17:42.456Z,5
2016-10-28T07:18:42.518Z,5
2016-10-28T07:19:42.493Z,5
2016-10-28T07:20:42.493Z,5
2016-10-28T07:21:42.525Z,5
2016-10-28T07:22:42.540Z,5
2016-10-28T07:23:42.563Z,5
2016-10-28T07:24:42.583Z,5
2016-10-28T07:25:42.618Z,5
2016-10-28T07:26:42.621Z,5
2016-10-28T07:27:42.630Z,5
2016-10-28T07:28:42.644Z,5
2016-10-28T07:29:42.656Z,5
2016-10-28T07:30:42.714Z,5
2016-10-28T07:31:42.703Z,5
2016-10-28T07:32:42.750Z,5
2016-10-28T07:33:42.731Z,5
2016-10-28T07:34:42.788Z,5
2016-10-28T07:35:42.773Z,5
2016-10-28T07:36:42.798Z,5
2016-10-28T07:37:42.807Z,5
2016-10-28T07:38:42.840Z,5
2016-10-28T07:39:42.879Z,5
2016-10-28T07:40:42.860Z,5
2016-10-28T07:41:42.869Z,5
2016-10-28T07:42:42.961Z,10
2016-10-28T07:43:42.916Z,10
2016-10-28T07:44:42.943Z,10
2016-10-28T07:45:42.931Z,10
2016-10-28T07:46:42.976Z,10
2016-10-28T07:47:42.994Z,10
2016-10-28T07:48:43.004Z,10
2016-10-28T07:49:43.015Z,10
2016-10-28T07:50:43.040Z,15
2016-10-28T07:51:43.067Z,15
2016-10-28T07:52:43.095Z,20
2016-10-28T07:53:43.097Z,15
2016-10-28T07:54:43.135Z,15
2016-10-28T07:55:43.104Z,15
2016-10-28T07:56:43.146Z,15
2016-10-28T07:57:43.145Z,10
2016-10-28T07:58:43.191Z,10
2016-10-28T07:59:43.196Z,10
2016-10-28T08:00:43.216Z,10
2016-10-28T08:01:43.208Z,10
2016-10-28T08:02:43.255Z,10
2016-10-28T08:03:43.272Z,10
2016-10-28T08:04:43.273Z,10
2016-10-28T08:05:43.289Z,10
2016-10-28T08:06:43.365Z,10
2016-10-28T08:07:43.320Z,15
2016-10-28T08:08:43.367Z,15
2016-10-28T08:09:43.368Z,15
2016-10-28T08:10:43.399Z,15
2016-10-28T08:11:43.710Z,20
2016-10-28T08:12:43.415Z,20
2016-10-28T08:13:43.429Z,20
2016-10-28T08:14:43.461Z,20
2016-10-28T08:15:43.521Z,20
2016-10-28T08:16:43.491Z,20
2016-10-28T08:17:43.546Z,20
2016-10-28T08:18:43.530Z,20
2016-10-28T08:19:43.539Z,20
2016-10-28T08:20:43.891Z,20
2016-10-28T08:21:43.861Z,20
2016-10-28T08:22:43.593Z,20
2016-10-28T08:23:43.602Z,20
2016-10-28T08:24:43.623Z,20
2016-10-28T08:25:43.674Z,20
2016-10-28T08:26:43.695Z,20
2016-10-28T08:27:43.674Z,20
2016-10-28T08:28:43.702Z,20
2016-10-28T08:29:43.732Z,20
2016-10-28T08:30:43.786Z,20
2016-10-28T08:31:43.745Z,20
2016-10-28T08:32:43.763Z,20
2016-10-28T08:33:43.812Z,20
2016-10-28T08:34:44.143Z,25
2016-10-28T08:35:43.820Z,25
2016-10-28T08:36:43.845Z,25
2016-10-28T08:37:43.849Z,25
2016-10-28T08:38:43.902Z,25
2016-10-28T08:39:43.912Z,25
2016-10-28T08:40:44.274Z,25
2016-10-28T08:41:43.919Z,30
2016-10-28T08:42:44.291Z,30
2016-10-28T08:43:43.957Z,35
2016-10-28T08:44:44.001Z,35
2016-10-28T08:45:43.990Z,40
2016-10-28T08:46:44.041Z,40
2016-10-28T08:47:44.021Z,35
2016-10-28T08:48:44.061Z,35
2016-10-28T08:49:44.078Z,35
2016-10-28T08:50:44.098Z,35
2016-10-28T08:51:44.139Z,40
2016-10-28T08:52:44.141Z,45
2016-10-28T08:53:44.141Z,50
2016-10-28T08:54:44.159Z,50
2016-10-28T08:55:44.563Z,55
2016-10-28T08:56:44.215Z,60
2016-10-28T08:57:44.215Z,65
2016-10-28T08:58:44.246Z,70
2016-10-28T08:59:44.273Z,70
2016-10-28T09:00:44.270Z,70
2016-10-28T09:01:44.300Z,70
2016-10-28T09:02:44.320Z,70
2016-10-28T09:03:44.327Z,70
2016-10-28T09:04:44.340Z,70
2016-10-28T09:05:44.354Z,65
2016-10-28T09:06:44.390Z,60
2016-10-28T09:07:44.395Z,60
2016-10-28T09:08:44.403Z,60
2016-10-28T09:09:44.481Z,55
2016-10-28T09:10:44.476Z,50
2016-10-28T09:11:44.466Z,40
2016-10-28T09:12:44.504Z,35
2016-10-28T09:13:44.515Z,35
2016-10-28T09:14:44.524Z,35
2016-10-28T09:15:44.540Z,35
2016-10-28T09:16:44.553Z,35
2016-10-28T09:17:44.615Z,35
2016-10-28T09:18:44.599Z,35
2016-10-28T09:19:44.653Z,40
2016-10-28T09:20:44.610Z,40
2016-10-28T09:21:44.637Z,40
2016-10-28T09:22:44.682Z,45
2016-10-28T09:23:44.671Z,45
2016-10-28T09:24:44.709Z,55
2016-10-28T09:25:44.721Z,60
2016-10-28T09:26:44.765Z,60
2016-10-28T09:27:44.755Z,65
2016-10-28T09:28:44.797Z,65
2016-10-28T09:29:44.782Z,70
2016-10-28T09:30:44.826Z,65
2016-10-28T09:31:44.835Z,65
2016-10-28T09:32:44.852Z,70
2016-10-28T09:33:44.867Z,85
2016-10-28T09:34:44.889Z,95
2016-10-28T09:35:44.910Z,95
2016-10-28T09:36:44.934Z,90
2016-10-28T09:37:44.943Z,85
2016-10-28T09:38:44.960Z,80
2016-10-28T09:39:44.948Z,75
2016-10-28T09:40:45.011Z,65
2016-10-28T09:41:45.032Z,65
2016-10-28T09:42:45.057Z,65
2016-10-28T09:43:45.059Z,65
2016-10-28T09:44:45.069Z,70
2016-10-28T09:45:45.070Z,70
2016-10-28T09:46:45.106Z,65
2016-10-28T09:47:45.116Z,60
2016-10-28T09:48:45.146Z,55
2016-10-28T09:49:45.159Z,45
2016-10-28T09:50:45.211Z,40
2016-10-28T09:51:45.209Z,35
2016-10-28T09:52:45.223Z,35
2016-10-28T09:53:45.234Z,30
2016-10-28T09:54:45.250Z,30
2016-10-28T09:55:45.284Z,30
2016-10-28T09:56:45.291Z,30
2016-10-28T09:57:45.290Z,30
2016-10-28T09:58:45.323Z,30
2016-10-28T09:59:45.328Z,30
2016-10-28T10:00:45.385Z,35
2016-10-28T10:01:45.380Z,40
2016-10-28T10:02:45.404Z,45
2016-10-28T10:03:45.427Z,45
2016-10-28T10:04:45.446Z,45
2016-10-28T10:05:45.445Z,50
2016-10-28T10:06:45.476Z,50
2016-10-28T10:07:45.504Z,55
2016-10-28T10:08:45.511Z,55
2016-10-28T10:09:45.524Z,55
2016-10-28T10:10:45.554Z,55
2016-10-28T10:11:45.570Z,50
2016-10-28T10:12:45.567Z,50
2016-10-28T10:13:45.568Z,40
2016-10-28T10:14:45.612Z,40
2016-10-28T10:15:45.679Z,40
2016-10-28T10:16:45.634Z,40
2016-10-28T10:17:45.669Z,35
2016-10-28T10:18:45.694Z,40
2016-10-28T10:19:45.709Z,40
2016-10-28T10:20:45.714Z,35
2016-10-28T10:21:45.745Z,35
2016-10-28T10:22:45.754Z,35
2016-10-28T10:23:45.783Z,35
2016-10-28T10:24:45.788Z,35
2016-10-28T10:25:45.815Z,35
2016-10-28T10:26:45.825Z,35
2016-10-28T10:27:45.864Z,35
2016-10-28T10:28:45.866Z,40
2016-10-28T10:29:45.879Z,45
2016-10-28T10:30:45.923Z,55
2016-10-28T10:31:45.934Z,60
2016-10-28T10:32:45.958Z,65
2016-10-28T10:33:45.963Z,65
2016-10-28T10:34:45.959Z,60
2016-10-28T10:35:46.001Z,55
2016-10-28T10:36:46.015Z,50
2016-10-28T10:37:46.031Z,40
2016-10-28T10:38:46.041Z,35
2016-10-28T10:39:46.108Z,35
2016-10-28T10:40:46.115Z,35
2016-10-28T10:41:46.131Z,35
2016-10-28T10:42:46.127Z,35
2016-10-28T10:43:46.121Z,35
2016-10-28T10:44:46.173Z,30
2016-10-28T10:45:46.185Z,30
2016-10-28T10:46:46.211Z,30
2016-10-28T10:47:46.246Z,25
2016-10-28T10:48:46.228Z,25
2016-10-28T10:49:46.242Z,30
2016-10-28T10:50:46.256Z,35
2016-10-28T10:51:46.299Z,40
2016-10-28T10:52:46.304Z,40
2016-10-28T10:53:46.329Z,40
2016-10-28T10:54:46.326Z,35
2016-10-28T10:55:46.362Z,30
2016-10-28T10:56:46.390Z,25
2016-10-28T10:57:46.399Z,20
2016-10-28T10:58:46.402Z,25
2016-10-28T10:59:46.429Z,25
2016-10-28T11:00:46.792Z,30
2016-10-28T11:01:46.446Z,30
2016-10-28T11:02:46.474Z,35
2016-10-28T11:03:46.564Z,40
2016-10-28T11:04:46.531Z,40
2016-10-28T11:05:46.563Z,40
2016-10-28T11:06:46.566Z,40
2016-10-28T11:07:46.566Z,40
2016-10-28T11:08:46.927Z,40
2016-10-28T11:09:46.615Z,45
2016-10-28T11:10:46.679Z,50
2016-10-28T11:11:46.675Z,55
2016-10-28T11:12:46.660Z,55
2016-10-28T11:13:46.683Z,60
2016-10-28T11:14:46.703Z,60
2016-10-28T11:15:46.724Z,65
2016-10-28T11:16:46.772Z,60
2016-10-28T11:17:46.760Z,50
2016-10-28T11:18:46.783Z,45
2016-10-28T11:19:46.812Z,45
2016-10-28T11:20:46.849Z,45
2016-10-28T11:21:46.836Z,45
2016-10-28T11:22:46.866Z,40
2016-10-28T11:23:46.846Z,40
2016-10-28T11:24:46.912Z,40
2016-10-28T11:25:46.895Z,45
2016-10-28T11:26:46.946Z,45
2016-10-28T11:27:46.940Z,45
2016-10-28T11:28:46.952Z,45
2016-10-28T11:29:46.972Z,45
2016-10-28T11:30:46.984Z,45
2016-10-28T11:31:47.036Z,40
2016-10-28T11:32:47.037Z,35
2016-10-28T11:33:47.041Z,35
2016-10-28T11:34:47.082Z,35
2016-10-28T11:35:47.093Z,35
2016-10-28T11:36:47.119Z,35
2016-10-28T11:37:47.131Z,30
2016-10-28T11:38:47.132Z,30
2016-10-28T11:39:47.157Z,25
2016-10-28T11:40:47.190Z,25
2016-10-28T11:41:47.197Z,25
2016-10-28T11:42:47.212Z,25
2016-10-28T11:43:47.253Z,25
2016-10-28T11:44:47.250Z,25
2016-10-28T11:45:47.265Z,25
2016-10-28T11:46:47.283Z,30
2016-10-28T11:47:47.315Z,30
2016-10-28T11:48:47.337Z,30
2016-10-28T11:49:47.339Z,25
2016-10-28T11:50:47.347Z,25
2016-10-28T11:51:47.372Z,25
2016-10-28T11:52:47.425Z,25
2016-10-28T11:53:47.446Z,25
2016-10-28T11:54:47.431Z,30
2016-10-28T11:55:47.454Z,30
2016-10-28T11:56:47.548Z,30
2016-10-28T11:57:47.478Z,35
2016-10-28T11:58:47.534Z,30
2016-10-28T11:59:47.534Z,30
2016-10-28T12:00:47.519Z,30
2016-10-28T12:01:47.554Z,35
2016-10-28T12:02:47.642Z,40
2016-10-28T12:03:47.594Z,40
2016-10-28T12:04:47.617Z,45
2016-10-28T12:05:47.619Z,45
2016-10-28T12:06:47.636Z,45
2016-10-28T12:07:47.668Z,50
2016-10-28T12:08:47.707Z,55
2016-10-28T12:09:47.707Z,65
2016-10-28T12:10:47.725Z,75
2016-10-28T12:11:47.739Z,80
2016-10-28T12:12:47.755Z,75
2016-10-28T12:13:47.776Z,70
2016-10-28T12:14:47.798Z,70
2016-10-28T12:15:47.824Z,65
2016-10-28T12:16:47.828Z,60
2016-10-28T12:17:47.848Z,65
2016-10-28T12:18:47.858Z,70
2016-10-28T12:19:47.898Z,70
2016-10-28T12:20:47.908Z,70
2016-10-28T12:21:47.906Z,75
2016-10-28T12:22:47.948Z,75
2016-10-28T12:23:47.973Z,80
2016-10-28T12:24:48.037Z,75
2016-10-28T12:25:48.000Z,65
2016-10-28T12:26:48.024Z,60
2016-10-28T12:27:48.016Z,55
2016-10-28T12:28:48.057Z,45
2016-10-28T12:29:48.054Z,45
2016-10-28T12:30:48.099Z,50
2016-10-28T12:31:48.125Z,50
2016-10-28T12:32:48.126Z,55
2016-10-28T12:33:48.140Z,60
2016-10-28T12:34:48.167Z,55
2016-10-28T12:35:48.192Z,55
2016-10-28T12:36:48.183Z,45
2016-10-28T12:37:48.237Z,40
2016-10-28T12:38:48.233Z,35
2016-10-28T12:39:48.259Z,30
2016-10-28T12:40:48.263Z,30
2016-10-28T12:41:48.275Z,25
2016-10-28T12:42:48.302Z,25
2016-10-28T12:43:48.369Z,25
2016-10-28T12:44:48.331Z,25
2016-10-28T12:45:48.394Z,25
2016-10-28T12:46:48.385Z,25
2016-10-28T12:47:48.401Z,25
2016-10-28T12:48:48.453Z,20
2016-10-28T12:49:48.432Z,15
2016-10-28T12:50:48.452Z,15
2016-10-28T12:51:48.474Z,15
2016-10-28T12:52:48.493Z,15
2016-10-28T12:53:48.516Z,20
2016-10-28T12:54:48.537Z,20
2016-10-28T12:55:48.546Z,20
2016-10-28T12:56:48.578Z,20
2016-10-28T12:57:48.567Z,20
2016-10-28T12:58:48.604Z,20
2016-10-28T12:59:48.614Z,15
2016-10-28T13:00:48.691Z,15
2016-10-28T13:01:48.652Z,15
2016-10-28T13:02:48.679Z,15
2016-10-28T13:03:48.669Z,15
2016-10-28T13:04:48.721Z,10
2016-10-28T13:05:48.730Z,15
2016-10-28T13:06:48.759Z,15
2016-10-28T13:07:48.780Z,20
2016-10-28T13:08:48.805Z,20
2016-10-28T13:09:48.849Z,20
2016-10-28T13:10:48.833Z,20
2016-10-28T13:11:48.846Z,25
2016-10-28T13:12:48.855Z,25
2016-10-28T13:13:48.892Z,25
2016-10-28T13:14:48.902Z,25
2016-10-28T13:15:48.903Z,20
2016-10-28T13:16:48.939Z,20
2016-10-28T13:17:48.948Z,20
2016-10-28T13:18:48.952Z,20
2016-10-28T13:19:49.025Z,15
2016-10-28T13:20:49.006Z,15
2016-10-28T13:21:49.029Z,15
2016-10-28T13:22:49.374Z,15
2016-10-28T13:23:49.062Z,10
2016-10-28T13:24:49.073Z,10
2016-10-28T13:25:49.095Z,10
2016-10-28T13:26:49.103Z,10
2016-10-28T13:27:49.120Z,10
2016-10-28T13:28:49.145Z,15
2016-10-28T13:29:49.156Z,15
2016-10-28T13:30:49.187Z,15
2016-10-28T13:31:49.199Z,15
2016-10-28T13:32:49.253Z,15
2016-10-28T13:33:49.219Z,15
2016-10-28T13:34:49.257Z,15
2016-10-28T13:35:49.309Z,15
2016-10-28T13:36:49.309Z,15
2016-10-28T13:37:49.305Z,15
2016-10-28T13:38:49.339Z,10
2016-10-28T13:39:49.341Z,15
2016-10-28T13:40:49.381Z,15
2016-10-28T13:41:49.396Z,15
2016-10-28T13:42:49.403Z,15
2016-10-28T13:43:49.429Z,15
2016-10-28T13:44:49.448Z,15
2016-10-28T13:45:49.454Z,20
2016-10-28T13:46:49.485Z,25
2016-10-28T13:47:49.480Z,25
2016-10-28T13:48:49.508Z,25
2016-10-28T13:49:49.544Z,20
2016-10-28T13:50:49.534Z,15
2016-10-28T13:51:49.572Z,15
2016-10-28T13:52:49.567Z,15
2016-10-28T13:53:49.600Z,15
2016-10-28T13:54:49.613Z,15
2016-10-28T13:55:49.642Z,10
2016-10-28T13:56:49.664Z,10
2016-10-28T13:57:49.687Z,10
2016-10-28T13:58:49.678Z,10
2016-10-28T13:59:49.683Z,10
2016-10-28T14:00:50.100Z,10
2016-10-28T14:01:49.744Z,10
2016-10-28T14:02:49.751Z,10
2016-10-28T14:03:49.767Z,10
2016-10-28T14:04:49.838Z,10
2016-10-28T14:05:49.855Z,5
2016-10-28T14:06:49.832Z,5
2016-10-28T14:07:49.842Z,5
2016-10-28T14:08:49.862Z,5
2016-10-28T14:09:49.904Z,5
2016-10-28T14:10:49.915Z,5
2016-10-28T14:11:49.917Z,5
2016-10-28T14:12:49.926Z,5
2016-10-28T14:13:49.935Z,5
2016-10-28T14:14:50.019Z,10
2016-10-28T14:15:49.986Z,10
2016-10-28T14:16:49.995Z,5
2016-10-28T14:17:50.019Z,5
2016-10-28T14:18:50.060Z,5
2016-10-28T14:19:50.065Z,5
2016-10-28T14:20:50.090Z,5
2016-10-28T14:21:50.104Z,5
2016-10-28T14:22:50.115Z,5
2016-10-28T14:23:50.161Z,5
2016-10-28T14:24:50.169Z,5
2016-10-28T14:25:50.179Z,5
2016-10-28T14:26:50.200Z,5
2016-10-28T14:27:50.248Z,10
2016-10-28T14:28:50.548Z,10
2016-10-28T14:29:50.247Z,5
2016-10-28T14:30:50.314Z,5
2016-10-28T14:31:50.273Z,5
2016-10-28T14:32:50.332Z,5
2016-10-28T14:33:50.374Z,10